createdAt,value
2022-12-06T00:00:27.581Z,100.00
2022-12-06T00:04:29.901Z,100.00
2022-12-06T00:08:40.326Z,100.00
2022-12-06T00:12:43.197Z,100.00
2022-12-06T00:16:48.965Z,100.00
2022-12-06T00:20:51.371Z,100.00
2022-12-06T00:24:55.898Z,100.00
2022-12-06T00:28:59.910Z,100.00
2022-12-06T00:33:02.027Z,100.00
2022-12-06T00:37:04.192Z,100.00
2022-12-06T00:41:12.856Z,100.00
2022-12-06T00:45:15.063Z,100.00
2022-12-06T00:49:17.240Z,100.00
2022-12-06T00:53:19.559Z,100.00
2022-12-06T00:57:21.624Z,100.00
2022-12-06T01:01:30.829Z,100.00
2022-12-06T01:05:33.643Z,100.00
2022-12-06T01:09:35.707Z,100.00
2022-12-06T01:13:37.774Z,100.00
2022-12-06T01:17:39.895Z,100.00
2022-12-06T01:21:41.957Z,100.00
2022-12-06T01:25:51.819Z,100.00
2022-12-06T01:29:54.179Z,100.00
2022-12-06T01:33:56.215Z,100.00
2022-12-06T01:38:02.988Z,100.00
2022-12-06T01:42:11.237Z,100.00
2022-12-06T01:46:37.297Z,100.00
2022-12-06T01:50:40.156Z,100.00
2022-12-06T01:54:42.473Z,100.00
2022-12-06T01:58:46.845Z,100.00
2022-12-06T02:02:49.214Z,100.00
2022-12-06T02:06:54.385Z,100.00
2022-12-06T02:10:56.463Z,100.00
2022-12-06T02:14:59.616Z,100.00
2022-12-06T02:19:16.838Z,100.00
2022-12-06T02:23:52.858Z,100.00
2022-12-06T02:28:21.787Z,100.00
2022-12-06T02:32:36.124Z,100.00
2022-12-06T02:36:40.394Z,100.00
2022-12-06T02:40:50.447Z,100.00
2022-12-06T02:45:01.156Z,100.00
2022-12-06T02:49:06.255Z,100.00
2022-12-06T02:53:12.939Z,100.00
2022-12-06T02:57:14.997Z,100.00
2022-12-06T03:01:22.147Z,100.00
2022-12-06T03:05:27.900Z,100.00
2022-12-06T03:10:02.339Z,100.00
2022-12-06T03:14:14.639Z,100.00
2022-12-06T03:18:36.980Z,100.00
2022-12-06T03:22:46.255Z,100.00
2022-12-06T03:26:51.539Z,100.00
2022-12-06T03:31:05.993Z,100.00
2022-12-06T03:35:12.045Z,100.00
2022-12-06T03:39:19.649Z,100.00
2022-12-06T03:43:21.911Z,100.00
2022-12-06T03:47:32.443Z,100.00
2022-12-06T03:51:37.343Z,100.00
2022-12-06T03:55:39.384Z,100.00
2022-12-06T03:59:41.514Z,100.00
2022-12-06T04:03:43.694Z,100.00
2022-12-06T04:07:45.886Z,100.00
2022-12-06T04:11:48.001Z,100.00
2022-12-06T04:15:50.280Z,100.00
2022-12-06T04:19:52.398Z,100.00
2022-12-06T04:23:54.432Z,100.00
2022-12-06T04:28:15.158Z,100.00
2022-12-06T04:32:35.904Z,100.00
2022-12-06T04:36:57.182Z,100.00
2022-12-06T04:40:59.209Z,100.00
2022-12-06T04:45:01.423Z,100.00
2022-12-06T04:49:03.811Z,100.00
2022-12-06T04:53:06.623Z,100.00
2022-12-06T04:57:12.048Z,100.00
2022-12-06T05:01:14.314Z,100.00
2022-12-06T05:05:16.378Z,100.00
2022-12-06T05:09:18.379Z,100.00
2022-12-06T05:13:20.762Z,100.00
2022-12-06T05:17:22.764Z,100.00
2022-12-06T05:21:25.426Z,100.00
2022-12-06T05:25:27.432Z,100.00
2022-12-06T05:29:29.678Z,100.00
2022-12-06T05:33:31.943Z,100.00
2022-12-06T05:37:33.945Z,100.00
2022-12-06T05:41:35.952Z,100.00
2022-12-06T05:45:38.376Z,100.00
2022-12-06T05:49:40.478Z,100.00
2022-12-06T05:53:42.539Z,100.00
2022-12-06T05:57:47.324Z,100.00
2022-12-06T06:01:49.578Z,100.00
2022-12-06T06:05:56.658Z,100.00
2022-12-06T06:09:58.952Z,100.00
2022-12-06T06:14:01.178Z,100.00
2022-12-06T06:18:03.557Z,100.00
2022-12-06T06:22:05.855Z,100.00
2022-12-06T06:26:12.023Z,100.00
2022-12-06T06:30:14.487Z,100.00
2022-12-06T06:34:16.501Z,100.00
2022-12-06T06:38:18.508Z,100.00
2022-12-06T06:42:20.690Z,100.00
2022-12-06T06:46:22.786Z,100.00
2022-12-06T06:50:24.861Z,100.00
2022-12-06T06:54:27.986Z,100.00
2022-12-06T06:58:30.457Z,100.00
2022-12-06T07:02:32.572Z,100.00
2022-12-06T07:06:34.656Z,100.00
2022-12-06T07:10:36.685Z,100.00
2022-12-06T07:14:38.708Z,100.00
2022-12-06T07:18:41.232Z,100.00
2022-12-06T07:22:43.283Z,100.00
2022-12-06T07:26:45.340Z,100.00
2022-12-06T07:30:47.469Z,100.00
2022-12-06T07:34:49.568Z,100.00
2022-12-06T07:38:54.294Z,100.00
2022-12-06T07:43:15.147Z,100.00
2022-12-06T07:47:17.254Z,100.00
2022-12-06T07:51:19.271Z,100.00
2022-12-06T07:55:21.318Z,100.00
2022-12-06T07:59:23.942Z,100.00
2022-12-06T08:03:25.966Z,100.00
2022-12-06T08:07:28.056Z,100.00
2022-12-06T08:11:30.347Z,100.00
2022-12-06T08:15:32.453Z,100.00
2022-12-06T08:19:34.556Z,100.00
2022-12-06T08:23:36.598Z,100.00
2022-12-06T08:27:38.605Z,100.00
2022-12-06T08:31:40.865Z,100.00
2022-12-06T08:35:42.907Z,100.00
2022-12-06T08:39:44.912Z,100.00
2022-12-06T08:43:46.890Z,100.00
2022-12-06T08:47:48.897Z,100.00
2022-12-06T08:51:52.192Z,100.00
2022-12-06T08:56:02.099Z,100.00
2022-12-06T09:00:08.641Z,99.98
2022-12-06T09:04:11.721Z,98.93
2022-12-06T09:08:14.227Z,97.81
2022-12-06T09:12:16.316Z,98.72
2022-12-06T09:16:21.746Z,99.52
2022-12-06T09:20:23.907Z,98.90
2022-12-06T09:24:26.011Z,97.28
2022-12-06T09:28:29.033Z,97.43
2022-12-06T09:32:31.067Z,96.70
2022-12-06T09:36:33.583Z,96.32
2022-12-06T09:40:46.755Z,95.49
2022-12-06T09:44:57.550Z,95.61
2022-12-06T09:49:08.785Z,94.68
2022-12-06T09:53:27.023Z,94.48
2022-12-06T09:57:37.750Z,94.09
2022-12-06T10:01:52.024Z,96.08
2022-12-06T10:06:07.735Z,95.01
2022-12-06T10:10:26.155Z,95.45
2022-12-06T10:14:47.164Z,95.85
2022-12-06T10:19:08.360Z,96.14
2022-12-06T10:23:25.276Z,97.18
2022-12-06T10:27:38.164Z,97.68
2022-12-06T10:31:56.839Z,97.46
2022-12-06T10:36:02.034Z,96.89
2022-12-06T10:40:27.965Z,97.24
2022-12-06T10:44:43.376Z,96.76
2022-12-06T10:48:54.948Z,96.05
2022-12-06T10:53:05.929Z,95.34
2022-12-06T10:57:15.597Z,95.13
2022-12-06T11:01:41.579Z,94.21
2022-12-06T11:05:54.869Z,91.72
2022-12-06T11:09:59.105Z,91.54
2022-12-06T11:14:11.636Z,89.39
2022-12-06T11:18:17.633Z,87.12
2022-12-06T11:22:34.201Z,87.63
2022-12-06T11:26:43.719Z,88.60
2022-12-06T11:30:45.736Z,89.01
2022-12-06T11:34:52.273Z,89.80
2022-12-06T11:38:54.463Z,89.50
2022-12-06T11:43:00.215Z,89.01
2022-12-06T11:47:02.950Z,89.72
2022-12-06T11:51:14.166Z,89.79
2022-12-06T11:55:17.552Z,90.17
2022-12-06T11:59:31.581Z,90.61
2022-12-06T12:03:36.370Z,91.50
2022-12-06T12:07:41.200Z,90.86
2022-12-06T12:11:43.773Z,91.68
2022-12-06T12:15:53.060Z,90.62
2022-12-06T12:20:07.981Z,89.58
2022-12-06T12:29:19.663Z,89.64
2022-12-06T12:33:26.399Z,89.26
2022-12-06T12:37:28.508Z,89.84
2022-12-06T12:41:43.903Z,89.50
2022-12-06T12:46:04.659Z,90.32
2022-12-06T12:50:18.604Z,90.72
2022-12-06T12:54:27.781Z,90.60
2022-12-06T12:58:35.748Z,91.12
2022-12-06T13:02:38.899Z,91.81
2022-12-06T13:06:48.038Z,91.35
2022-12-06T13:10:58.788Z,91.66
2022-12-06T13:15:14.577Z,91.78
2022-12-06T13:19:19.016Z,92.01
2022-12-06T13:23:25.097Z,91.16
2022-12-06T13:27:29.847Z,91.60
2022-12-06T13:31:36.483Z,91.34
2022-12-06T13:35:42.948Z,91.04
2022-12-06T13:39:49.680Z,92.10
2022-12-06T13:43:51.919Z,91.79
2022-12-06T13:47:53.954Z,91.13
2022-12-06T13:51:56.093Z,91.46
2022-12-06T13:56:17.939Z,92.84
2022-12-06T14:00:29.269Z,93.56
2022-12-06T14:08:39.870Z,94.09
2022-12-06T14:12:42.003Z,94.19
2022-12-06T14:16:51.031Z,94.44
2022-12-06T14:20:56.679Z,94.55
2022-12-06T14:25:04.621Z,94.58
2022-12-06T14:29:22.337Z,95.31
2022-12-06T14:33:24.411Z,95.84
2022-12-06T14:37:26.430Z,96.16
2022-12-06T14:41:50.078Z,95.26
2022-12-06T14:45:53.845Z,95.56
2022-12-06T14:50:17.213Z,95.88
2022-12-06T14:54:42.198Z,96.10
2022-12-06T14:58:44.278Z,95.85
2022-12-06T15:03:07.774Z,96.57
2022-12-06T15:07:38.890Z,96.67
2022-12-06T15:12:01.998Z,96.34
2022-12-06T15:16:10.047Z,95.99
2022-12-06T15:20:15.406Z,96.35
2022-12-06T15:24:25.995Z,96.16
2022-12-06T15:28:28.131Z,96.58
2022-12-06T15:32:30.217Z,97.75
2022-12-06T15:36:34.541Z,97.25
2022-12-06T15:40:39.180Z,97.90
2022-12-06T15:44:45.758Z,98.04
2022-12-06T15:48:52.490Z,97.00
2022-12-06T15:52:54.496Z,97.53
2022-12-06T15:56:56.521Z,97.21
2022-12-06T16:00:59.884Z,98.02
2022-12-06T16:05:02.009Z,98.57
2022-12-06T16:09:04.283Z,97.92
2022-12-06T16:13:21.573Z,98.79
2022-12-06T16:17:23.601Z,99.19
2022-12-06T16:21:27.593Z,98.59
2022-12-06T16:25:29.578Z,98.62
2022-12-06T16:29:31.666Z,99.92
2022-12-06T16:33:33.791Z,99.68
2022-12-06T16:37:35.798Z,98.61
2022-12-06T16:41:37.792Z,99.39
2022-12-06T16:45:41.968Z,99.27
2022-12-06T16:49:46.262Z,99.31
2022-12-06T16:53:50.099Z,99.28
2022-12-06T16:57:52.572Z,99.76
2022-12-06T17:01:55.221Z,99.89
2022-12-06T17:05:57.406Z,100.00
2022-12-06T17:09:59.794Z,100.00
2022-12-06T17:14:02.261Z,100.00
2022-12-06T17:18:04.386Z,100.00
2022-12-06T17:22:07.271Z,100.00
2022-12-06T17:26:09.294Z,100.00
2022-12-06T17:30:17.599Z,100.00
2022-12-06T17:34:20.190Z,100.00
2022-12-06T17:38:22.256Z,100.00
2022-12-06T17:42:42.913Z,100.00
2022-12-06T17:46:44.930Z,100.00
2022-12-06T17:50:46.964Z,100.00
2022-12-06T17:54:49.040Z,100.00
2022-12-06T17:58:52.955Z,100.00
2022-12-06T18:02:55.032Z,100.00
2022-12-06T18:06:57.776Z,100.00
2022-12-06T18:11:00.151Z,100.00
2022-12-06T18:15:02.462Z,100.00
2022-12-06T18:19:11.333Z,100.00
2022-12-06T18:23:13.863Z,100.00
2022-12-06T18:27:15.921Z,100.00
2022-12-06T18:31:18.121Z,100.00
2022-12-06T18:35:20.184Z,100.00
2022-12-06T18:39:24.923Z,100.00
2022-12-06T18:43:27.158Z,100.00
2022-12-06T18:47:29.168Z,100.00
2022-12-06T18:51:33.938Z,100.00
2022-12-06T18:55:35.957Z,100.00
2022-12-06T18:59:38.083Z,100.00
2022-12-06T19:03:40.548Z,100.00
2022-12-06T19:07:44.590Z,100.00
2022-12-06T19:11:46.760Z,100.00
2022-12-06T19:15:48.784Z,100.00
2022-12-06T19:19:50.807Z,100.00
2022-12-06T19:23:57.121Z,100.00
2022-12-06T19:27:59.158Z,100.00
2022-12-06T19:32:02.371Z,100.00
2022-12-06T19:36:07.254Z,100.00
2022-12-06T19:40:09.688Z,100.00
2022-12-06T19:44:15.245Z,100.00
2022-12-06T19:48:17.311Z,100.00
2022-12-06T19:52:19.373Z,100.00
2022-12-06T19:56:22.316Z,100.00
2022-12-06T20:00:24.341Z,100.00
2022-12-06T20:04:32.661Z,100.00
2022-12-06T20:08:37.563Z,100.00
2022-12-06T20:12:39.574Z,100.00
2022-12-06T20:16:42.547Z,100.00
2022-12-06T20:20:48.506Z,100.00
2022-12-06T20:24:50.604Z,100.00
2022-12-06T20:28:52.704Z,100.00
2022-12-06T20:32:54.698Z,100.00
2022-12-06T20:36:57.516Z,100.00
2022-12-06T20:40:59.559Z,100.00
2022-12-06T20:45:01.631Z,100.00
2022-12-06T20:49:05.369Z,100.00
2022-12-06T20:53:07.477Z,100.00
2022-12-06T20:57:09.649Z,100.00
2022-12-06T21:01:19.012Z,100.00
2022-12-06T21:05:21.052Z,100.00
2022-12-06T21:09:23.674Z,100.00
2022-12-06T21:13:26.710Z,100.00
2022-12-06T21:17:32.593Z,100.00
2022-12-06T21:21:37.185Z,100.00
2022-12-06T21:25:39.203Z,100.00
2022-12-06T21:29:42.567Z,100.00
2022-12-06T21:33:44.656Z,100.00
2022-12-06T21:37:46.677Z,100.00
2022-12-06T21:41:48.831Z,100.00
2022-12-06T21:45:50.849Z,100.00
2022-12-06T21:49:52.851Z,100.00
2022-12-06T21:53:55.624Z,99.77
2022-12-06T21:57:57.660Z,100.00
2022-12-06T22:01:59.805Z,100.00
2022-12-06T22:06:20.823Z,100.00
2022-12-06T22:10:22.834Z,100.00
2022-12-06T22:14:24.861Z,100.00
2022-12-06T22:18:28.868Z,100.00
2022-12-06T22:22:30.955Z,99.73
2022-12-06T22:26:33.076Z,99.44
2022-12-06T22:30:35.084Z,99.21
2022-12-06T22:34:37.109Z,99.57
2022-12-06T22:38:39.477Z,99.37
2022-12-06T22:42:41.517Z,99.65
2022-12-06T22:46:43.778Z,99.33
2022-12-06T22:50:46.198Z,99.39
2022-12-06T22:54:48.248Z,99.17
2022-12-06T22:58:54.848Z,99.14
2022-12-06T23:02:58.504Z,99.31
2022-12-06T23:07:00.516Z,98.87
2022-12-06T23:11:09.039Z,98.64
2022-12-06T23:15:11.243Z,98.38
2022-12-06T23:19:13.351Z,98.89
2022-12-06T23:23:15.389Z,98.67
2022-12-06T23:27:18.116Z,99.02
2022-12-06T23:31:34.568Z,98.62
2022-12-06T23:35:36.663Z,98.86
2022-12-06T23:39:38.847Z,98.79
2022-12-06T23:43:41.715Z,98.98
2022-12-06T23:47:43.794Z,99.04
2022-12-06T23:51:46.447Z,98.96
2022-12-06T23:55:48.455Z,98.97
2022-12-06T23:59:50.468Z,98.79
